Time;durP1;ratioP1;P1;durP2;ratioP2;P2;SDS_P1;SDS_P2;PMS_P1;PMS_P2;Temp;Humidity;BMP_temperature;BMP_pressure;BME280_temperature;BME280_humidity;BME280_pressure;Samples;Min_cycle;Max_cycle;Signal;HPM_P1;HPM_P2
2022/11/14 00:00:00;;;;;;;10.03;9.13;;;8.30;87.50;;;;;;5099439;28;20429;-43
2022/11/14 00:02:26;;;;;;;9.50;8.60;;;8.30;87.60;;;;;;5117435;28;20213;-43
2022/11/14 00:04:51;;;;;;;9.63;8.73;;;8.30;88.40;;;;;;5116838;28;20184;-42
2022/11/14 00:07:17;;;;;;;10.00;9.00;;;8.30;87.70;;;;;;5117286;28;20412;-43
2022/11/14 00:09:43;;;;;;;9.80;8.80;;;8.30;87.80;;;;;;5117507;28;20206;-42
2022/11/14 00:12:09;;;;;;;10.37;9.13;;;8.30;87.90;;;;;;5117801;28;20206;-42
2022/11/14 00:14:35;;;;;;;10.57;9.50;;;8.30;88.00;;;;;;5117631;28;20176;-42
2022/11/14 00:17:01;;;;;;;10.33;9.30;;;8.20;88.10;;;;;;5117387;28;20402;-43
2022/11/14 00:19:27;;;;;;;10.33;9.27;;;8.20;88.20;;;;;;5098889;28;20898;-43
2022/11/14 00:21:53;;;;;;;10.90;9.80;;;8.20;88.50;;;;;;5117244;28;20166;-44
2022/11/14 00:24:19;;;;;;;10.13;9.20;;;8.20;89.30;;;;;;5114318;28;20190;-42
2022/11/14 00:26:44;;;;;;;10.97;9.97;;;8.20;88.80;;;;;;5109750;28;20413;-44
2022/11/14 00:29:12;;;;;;;11.00;9.90;;;8.20;89.00;;;;;;5082330;28;20425;-43
2022/11/14 00:31:38;;;;;;;9.17;8.27;;;8.10;89.10;;;;;;5117382;28;20484;-44
2022/11/14 00:34:04;;;;;;;10.80;9.67;;;8.10;89.20;;;;;;5118231;28;20413;-43
2022/11/14 00:36:30;;;;;;;10.60;9.23;;;8.10;89.40;;;;;;5118007;28;20175;-42
2022/11/14 00:38:56;;;;;;;9.37;8.37;;;8.00;89.30;;;;;;5099544;28;20421;-44
2022/11/14 00:41:22;;;;;;;9.40;8.50;;;8.10;90.00;;;;;;5119017;28;20436;-43
2022/11/14 00:43:47;;;;;;;10.33;9.33;;;8.10;89.20;;;;;;5099819;28;20441;-44
2022/11/14 00:46:15;;;;;;;10.50;9.40;;;8.10;89.20;;;;;;5116476;28;20722;-44
2022/11/14 00:48:44;;;;;;;10.17;9.17;;;8.00;89.80;;;;;;5117064;28;20461;-45
2022/11/14 00:51:10;;;;;;;9.77;8.87;;;8.00;89.10;;;;;;5114527;28;20472;-43
2022/11/14 00:53:36;;;;;;;9.80;8.87;;;8.00;89.00;;;;;;5115548;28;20475;-45
2022/11/14 00:56:02;;;;;;;10.03;9.13;;;8.00;89.00;;;;;;5117495;28;20430;-44
2022/11/14 00:58:27;;;;;;;9.20;8.40;;;8.00;89.00;;;;;;5119651;28;20210;-46
2022/11/14 01:00:53;;;;;;;9.67;8.67;;;8.00;89.00;;;;;;5120089;28;20474;-44
2022/11/14 01:03:19;;;;;;;10.23;9.23;;;8.00;88.90;;;;;;5120308;28;20191;-43
2022/11/14 01:05:49;;;;;;;11.90;10.80;;;8.00;88.90;;;;;;5100959;28;20180;-44
2022/11/14 01:08:16;;;;;;;11.23;9.57;;;8.00;89.00;;;;;;5120692;28;20165;-44
2022/11/14 01:10:44;;;;;;;9.87;8.87;;;8.00;89.10;;;;;;5119463;28;20453;-44
2022/11/14 01:13:10;;;;;;;10.43;9.40;;;8.00;89.10;;;;;;5120060;28;20421;-43
2022/11/14 01:15:40;;;;;;;10.57;9.57;;;8.00;89.10;;;;;;5120053;28;20436;-45
2022/11/14 01:18:05;;;;;;;10.50;9.40;;;8.00;89.30;;;;;;5119477;28;20404;-44
2022/11/14 01:20:31;;;;;;;9.80;8.80;;;8.00;89.40;;;;;;5120340;28;20585;-44
2022/11/14 01:22:56;;;;;;;9.10;8.20;;;7.90;89.40;;;;;;5119588;28;20167;-43
2022/11/14 01:25:22;;;;;;;10.67;9.67;;;7.90;89.60;;;;;;5119893;28;20588;-45
2022/11/14 01:27:47;;;;;;;10.30;9.30;;;7.90;89.70;;;;;;5119275;28;20176;-46
2022/11/14 01:30:13;;;;;;;10.90;9.90;;;7.90;89.90;;;;;;5119833;28;20590;-43
2022/11/14 01:32:39;;;;;;;9.80;8.80;;;7.90;90.00;;;;;;5119799;28;20283;-43
2022/11/14 01:35:05;;;;;;;9.83;8.60;;;7.90;90.00;;;;;;5118329;28;20185;-43
2022/11/14 01:37:30;;;;;;;9.97;8.97;;;7.90;90.00;;;;;;5119338;28;20178;-43
2022/11/14 01:39:56;;;;;;;10.00;9.00;;;7.90;90.00;;;;;;5120234;28;20859;-44
2022/11/14 01:42:21;;;;;;;9.10;8.20;;;7.90;90.10;;;;;;5119370;28;20176;-44
2022/11/14 01:44:51;;;;;;;9.60;8.60;;;7.80;90.10;;;;;;5114286;28;20208;-44
2022/11/14 01:47:24;;;;;;;9.40;8.50;;;7.80;90.10;;;;;;5117564;28;21089;-43
2022/11/14 01:49:54;;;;;;;9.33;8.40;;;7.80;90.20;;;;;;5119897;28;20432;-44
2022/11/14 01:52:24;;;;;;;9.67;8.67;;;7.90;90.30;;;;;;5101693;28;20462;-45
2022/11/14 01:54:52;;;;;;;9.77;8.77;;;7.90;90.30;;;;;;5100730;28;20469;-44
2022/11/14 01:57:22;;;;;;;10.27;9.17;;;7.80;90.30;;;;;;5101865;28;20451;-43
2022/11/14 01:59:51;;;;;;;9.50;8.60;;;7.90;90.40;;;;;;5113397;28;20511;-46
2022/11/14 02:02:20;;;;;;;9.83;8.87;;;7.90;90.40;;;;;;5116682;28;20428;-43
2022/11/14 02:04:55;;;;;;;11.20;9.40;;;7.90;90.40;;;;;;5118663;28;20446;-44
2022/11/14 02:07:22;;;;;;;9.33;8.43;;;7.80;90.40;;;;;;5101463;28;20703;-46
2022/11/14 02:09:48;;;;;;;8.80;7.97;;;7.90;90.60;;;;;;5119417;28;20575;-45
2022/11/14 02:12:16;;;;;;;10.63;9.53;;;7.80;90.50;;;;;;5119560;28;20462;-43
2022/11/14 02:14:46;;;;;;;9.53;8.63;;;7.80;90.60;;;;;;5101023;28;20433;-43
2022/11/14 02:17:13;;;;;;;9.97;8.80;;;7.80;90.60;;;;;;5083974;28;20417;-43
2022/11/14 02:19:47;;;;;;;9.10;8.20;;;7.80;90.70;;;;;;5101497;28;20928;-43
2022/11/14 02:22:13;;;;;;;9.50;8.60;;;7.80;90.70;;;;;;5118918;28;20441;-44
2022/11/14 02:24:39;;;;;;;10.50;9.50;;;7.90;90.80;;;;;;5119322;28;20854;-45
2022/11/14 02:27:06;;;;;;;10.50;9.47;;;7.80;90.80;;;;;;5119340;28;20247;-43
2022/11/14 02:29:33;;;;;;;9.83;8.83;;;7.80;90.80;;;;;;5101307;28;20453;-44
2022/11/14 02:31:58;;;;;;;10.20;9.20;;;7.80;90.90;;;;;;5119449;28;20514;-43
2022/11/14 02:34:24;;;;;;;10.83;9.73;;;7.80;91.00;;;;;;5119140;28;20413;-45
2022/11/14 02:36:49;;;;;;;10.70;9.70;;;7.70;91.00;;;;;;5118180;28;20581;-43
2022/11/14 02:39:15;;;;;;;11.50;9.43;;;7.70;91.00;;;;;;5118628;28;20168;-45
2022/11/14 02:41:41;;;;;;;8.97;8.07;;;7.70;91.10;;;;;;5119291;28;20179;-44
2022/11/14 02:44:06;;;;;;;8.93;8.03;;;7.70;91.10;;;;;;5119017;28;20176;-43
2022/11/14 02:46:32;;;;;;;10.07;9.07;;;7.70;91.20;;;;;;5118640;28;20461;-42
2022/11/14 02:48:58;;;;;;;9.97;8.97;;;7.60;91.10;;;;;;5118114;28;20565;-44
2022/11/14 02:51:23;;;;;;;10.17;9.17;;;7.60;91.20;;;;;;5118046;28;20587;-44
2022/11/14 02:53:49;;;;;;;10.13;9.20;;;7.60;91.30;;;;;;5096322;28;20220;-43
2022/11/14 02:56:14;;;;;;;10.37;9.33;;;7.60;91.40;;;;;;5096164;28;20219;-42
2022/11/14 02:58:40;;;;;;;12.40;9.37;;;7.50;91.40;;;;;;5097119;28;20185;-43
2022/11/14 03:01:06;;;;;;;11.57;10.33;;;7.50;91.50;;;;;;5098389;28;20215;-43
2022/11/14 03:03:31;;;;;;;10.97;9.87;;;7.40;91.60;;;;;;5097536;28;20435;-44
2022/11/14 03:06:00;;;;;;;10.60;9.60;;;7.40;91.70;;;;;;5098027;28;20479;-44
2022/11/14 03:08:26;;;;;;;8.53;7.63;;;7.30;91.70;;;;;;5098092;28;20184;-45
2022/11/14 03:10:52;;;;;;;9.77;8.77;;;7.30;91.80;;;;;;5096749;28;20525;-44
2022/11/14 03:13:18;;;;;;;10.20;9.13;;;7.30;91.90;;;;;;5097515;28;20184;-44
2022/11/14 03:15:44;;;;;;;11.00;9.70;;;7.30;91.80;;;;;;5097546;28;20438;-42
2022/11/14 03:18:09;;;;;;;9.53;8.63;;;7.30;91.80;;;;;;5097998;28;20828;-44
2022/11/14 03:20:35;;;;;;;8.83;8.00;;;7.30;91.80;;;;;;5096541;28;20191;-43
2022/11/14 03:23:01;;;;;;;8.23;7.43;;;7.20;91.70;;;;;;5097742;28;20177;-44
2022/11/14 03:25:26;;;;;;;8.30;7.50;;;7.20;91.70;;;;;;5094661;28;20517;-43
2022/11/14 03:27:52;;;;;;;8.03;7.23;;;7.20;92.10;;;;;;5077307;28;20181;-43
2022/11/14 03:30:18;;;;;;;9.03;8.13;;;7.20;91.80;;;;;;5077823;28;20200;-43
2022/11/14 03:32:43;;;;;;;8.70;7.83;;;7.20;91.80;;;;;;5077041;28;20219;-44
2022/11/14 03:35:09;;;;;;;8.60;7.70;;;7.30;91.70;;;;;;5076414;28;20238;-44
2022/11/14 03:37:35;;;;;;;9.30;7.90;;;7.30;91.70;;;;;;5076714;28;20197;-43
2022/11/14 03:40:01;;;;;;;9.37;8.30;;;7.30;91.70;;;;;;5076614;28;20473;-43
2022/11/14 03:42:26;;;;;;;8.57;7.77;;;7.30;91.60;;;;;;5076818;28;20178;-43
2022/11/14 03:44:52;;;;;;;8.83;7.73;;;7.30;91.60;;;;;;5075575;28;20254;-44
2022/11/14 03:47:17;;;;;;;8.20;7.40;;;7.30;91.60;;;;;;5076351;28;20586;-43
2022/11/14 03:49:43;;;;;;;8.00;7.20;;;7.30;91.70;;;;;;5075445;28;20178;-43
2022/11/14 03:52:13;;;;;;;8.17;7.43;;;7.30;91.70;;;;;;5076897;28;20220;-43
2022/11/14 03:54:38;;;;;;;8.67;7.87;;;7.30;91.70;;;;;;5087459;28;20507;-45
2022/11/14 03:57:04;;;;;;;8.57;7.77;;;7.30;91.70;;;;;;5097766;28;20410;-44
2022/11/14 03:59:29;;;;;;;8.27;7.47;;;7.30;91.80;;;;;;5096697;28;20419;-43
2022/11/14 04:01:55;;;;;;;9.53;8.57;;;7.20;91.70;;;;;;5096805;28;20297;-44
2022/11/14 04:04:21;;;;;;;8.40;7.60;;;7.20;91.70;;;;;;5093299;28;20524;-42
2022/11/14 04:06:46;;;;;;;10.00;9.00;;;7.20;91.80;;;;;;5089266;28;20188;-44
2022/11/14 04:09:12;;;;;;;9.77;8.87;;;7.20;91.90;;;;;;5095676;28;20217;-44
2022/11/14 04:11:37;;;;;;;10.00;9.00;;;7.10;92.00;;;;;;5095352;28;20299;-43
2022/11/14 04:14:03;;;;;;;8.90;8.00;;;7.10;92.10;;;;;;5096121;28;20368;-42
2022/11/14 04:16:29;;;;;;;8.60;7.80;;;7.10;92.20;;;;;;5096500;28;20261;-43
2022/11/14 04:18:54;;;;;;;8.77;7.87;;;7.00;92.10;;;;;;5096250;28;20255;-45
2022/11/14 04:21:20;;;;;;;8.50;7.70;;;7.00;92.20;;;;;;5096054;28;20453;-44
2022/11/14 04:23:45;;;;;;;8.53;7.73;;;7.00;92.30;;;;;;5096748;28;20242;-43
2022/11/14 04:26:11;;;;;;;9.33;8.43;;;7.00;92.30;;;;;;5096888;28;20554;-43
2022/11/14 04:28:37;;;;;;;7.57;6.87;;;7.00;92.30;;;;;;5096583;28;20180;-43
2022/11/14 04:31:02;;;;;;;8.27;7.43;;;7.00;92.30;;;;;;5096798;28;20243;-42
2022/11/14 04:33:28;;;;;;;7.80;7.00;;;7.00;92.40;;;;;;5100378;28;20164;-42
2022/11/14 04:35:53;;;;;;;8.37;7.63;;;7.00;92.30;;;;;;5100857;28;20223;-43
2022/11/14 04:38:19;;;;;;;8.00;7.30;;;7.00;92.30;;;;;;5100128;28;20195;-44
2022/11/14 04:40:51;;;;;;;8.30;7.20;;;7.00;92.30;;;;;;5099634;28;20176;-44
2022/11/14 04:43:17;;;;;;;8.53;7.63;;;7.00;92.20;;;;;;5081865;28;20462;-43
2022/11/14 04:45:43;;;;;;;7.33;6.63;;;7.00;92.10;;;;;;5100046;28;20427;-43
2022/11/14 04:48:10;;;;;;;8.20;7.40;;;7.00;92.40;;;;;;5094399;28;20415;-46
2022/11/14 04:50:35;;;;;;;8.17;7.40;;;7.00;92.10;;;;;;5099790;28;20872;-44
2022/11/14 04:53:01;;;;;;;8.53;7.73;;;7.00;92.00;;;;;;5099242;28;20466;-43
2022/11/14 04:55:27;;;;;;;7.63;6.83;;;7.00;92.00;;;;;;5098995;28;20247;-44
2022/11/14 04:57:54;;;;;;;7.67;6.80;;;7.00;92.00;;;;;;5098909;28;20183;-44
2022/11/14 05:00:20;;;;;;;7.27;6.57;;;7.00;91.90;;;;;;5098776;28;20271;-43
2022/11/14 05:02:46;;;;;;;8.30;7.50;;;7.00;91.90;;;;;;5099620;28;20957;-44
2022/11/14 05:05:11;;;;;;;7.73;6.50;;;7.00;91.90;;;;;;5098065;28;20188;-44
2022/11/14 05:07:37;;;;;;;7.10;6.40;;;7.00;91.80;;;;;;5098715;28;20250;-46
2022/11/14 05:10:03;;;;;;;6.80;6.20;;;7.00;91.80;;;;;;5098068;28;20193;-44
2022/11/14 05:12:29;;;;;;;8.07;7.07;;;6.90;91.70;;;;;;5080560;28;20196;-45
2022/11/14 05:14:55;;;;;;;7.53;6.70;;;6.90;91.70;;;;;;5098335;28;20774;-44
2022/11/14 05:17:21;;;;;;;6.23;5.63;;;6.90;91.60;;;;;;5081166;28;20168;-42
2022/11/14 05:19:47;;;;;;;7.40;6.60;;;6.90;91.60;;;;;;5099370;28;20205;-44
2022/11/14 05:22:12;;;;;;;6.60;6.00;;;6.80;91.50;;;;;;5098788;28;20560;-43
2022/11/14 05:24:38;;;;;;;7.00;6.30;;;6.80;91.40;;;;;;5095640;28;20189;-43
2022/11/14 05:27:04;;;;;;;7.40;6.70;;;6.80;91.40;;;;;;5092819;28;20197;-44
2022/11/14 05:29:29;;;;;;;6.83;6.13;;;6.80;91.40;;;;;;5078543;28;20586;-44
2022/11/14 05:31:56;;;;;;;6.87;6.17;;;6.70;91.30;;;;;;5097445;28;20290;-44
2022/11/14 05:34:22;;;;;;;7.00;6.30;;;6.70;91.30;;;;;;5095637;28;20562;-49
2022/11/14 05:36:50;;;;;;;7.10;6.40;;;6.70;91.30;;;;;;5096732;28;20468;-46
2022/11/14 05:39:16;;;;;;;7.40;6.70;;;6.60;91.20;;;;;;5096776;28;20517;-45
2022/11/14 05:41:41;;;;;;;6.87;6.17;;;6.60;91.20;;;;;;5097686;28;20793;-46
2022/11/14 05:44:07;;;;;;;7.27;6.57;;;6.60;91.20;;;;;;5095541;28;20181;-44
2022/11/14 05:46:32;;;;;;;7.50;6.33;;;6.60;91.30;;;;;;5094827;28;20453;-42
2022/11/14 05:48:58;;;;;;;7.33;6.60;;;6.50;91.20;;;;;;5076554;28;20235;-44
2022/11/14 05:51:24;;;;;;;5.47;4.97;;;6.60;91.20;;;;;;5094014;28;20226;-44
2022/11/14 05:53:49;;;;;;;6.40;5.80;;;6.50;91.20;;;;;;5094388;28;20274;-43
2022/11/14 05:56:15;;;;;;;6.37;5.77;;;6.50;91.20;;;;;;5092971;28;20173;-45
2022/11/14 05:58:41;;;;;;;6.77;6.07;;;6.50;91.20;;;;;;5091596;28;20328;-43
2022/11/14 06:01:15;;;;;;;6.80;6.20;;;6.50;91.20;;;;;;5090325;28;20587;-45
2022/11/14 06:03:43;;;;;;;6.00;5.50;;;6.50;91.20;;;;;;5091099;28;20179;-44
2022/11/14 06:06:10;;;;;;;5.50;5.00;;;6.50;91.30;;;;;;5096466;28;20713;-43
2022/11/14 06:08:36;;;;;;;5.80;5.30;;;6.50;91.30;;;;;;5096357;28;20476;-42
2022/11/14 06:11:04;;;;;;;6.93;6.23;;;6.50;91.30;;;;;;5092994;28;20919;-44
2022/11/14 06:13:30;;;;;;;7.13;6.43;;;6.40;91.30;;;;;;5094098;28;21389;-44
2022/11/14 06:16:00;;;;;;;6.57;5.97;;;6.40;91.60;;;;;;5094284;28;20495;-43
2022/11/14 06:18:26;;;;;;;6.67;6.07;;;6.30;91.80;;;;;;5072700;28;20403;-43
2022/11/14 06:20:52;;;;;;;7.03;6.33;;;6.30;92.00;;;;;;5091279;28;20761;-43
2022/11/14 06:23:18;;;;;;;6.33;5.73;;;6.20;92.20;;;;;;5091667;28;20849;-41
2022/11/14 06:25:43;;;;;;;7.90;7.20;;;6.20;92.40;;;;;;5090869;28;20275;-44
2022/11/14 06:28:09;;;;;;;8.17;7.37;;;6.20;92.70;;;;;;5093142;28;20265;-42
2022/11/14 06:30:34;;;;;;;6.90;6.30;;;6.20;92.90;;;;;;5071636;28;20173;-44
2022/11/14 06:33:01;;;;;;;7.93;7.23;;;6.20;93.40;;;;;;5083662;28;20212;-44
2022/11/14 06:35:29;;;;;;;7.70;6.73;;;6.20;93.30;;;;;;5072095;28;20169;-43
2022/11/14 06:37:56;;;;;;;7.90;7.10;;;6.20;93.40;;;;;;5055450;28;20507;-45
2022/11/14 06:40:21;;;;;;;7.40;6.70;;;6.30;93.60;;;;;;5054679;28;20542;-44
2022/11/14 06:42:47;;;;;;;7.43;6.73;;;6.30;93.70;;;;;;5071190;28;20510;-44
2022/11/14 06:45:13;;;;;;;8.70;7.90;;;6.30;93.80;;;;;;5071775;28;20541;-44
2022/11/14 06:47:38;;;;;;;8.27;7.40;;;6.40;93.80;;;;;;5069315;28;20260;-43
2022/11/14 06:50:04;;;;;;;7.87;7.10;;;6.40;93.90;;;;;;5069481;28;20437;-42
2022/11/14 06:52:30;;;;;;;7.57;6.87;;;6.40;93.90;;;;;;5090452;28;20251;-43
2022/11/14 06:54:56;;;;;;;8.27;7.20;;;6.50;94.00;;;;;;5091734;28;20657;-43
2022/11/14 06:57:21;;;;;;;8.33;6.80;;;6.50;94.00;;;;;;5094099;28;20169;-43
2022/11/14 06:59:47;;;;;;;8.00;7.10;;;6.60;94.00;;;;;;5093048;28;20173;-44
2022/11/14 07:02:13;;;;;;;8.00;7.20;;;6.60;94.00;;;;;;5093330;28;20169;-43
2022/11/14 07:04:38;;;;;;;8.17;7.37;;;6.60;94.00;;;;;;5094908;28;20180;-44
2022/11/14 07:07:04;;;;;;;8.10;7.30;;;6.70;94.00;;;;;;5096004;28;20411;-43
2022/11/14 07:09:30;;;;;;;7.63;6.33;;;6.70;94.00;;;;;;5095460;28;20571;-42
2022/11/14 07:11:55;;;;;;;9.93;8.57;;;6.70;94.10;;;;;;5093871;28;20591;-42
2022/11/14 07:14:21;;;;;;;9.60;8.40;;;6.80;94.10;;;;;;5092077;28;20263;-43
2022/11/14 07:16:46;;;;;;;8.67;7.77;;;6.80;94.10;;;;;;5093809;28;20251;-43
2022/11/14 07:19:12;;;;;;;9.80;8.90;;;6.80;94.00;;;;;;5090411;28;20196;-42
2022/11/14 07:21:38;;;;;;;9.23;8.33;;;6.90;94.00;;;;;;5073686;28;20541;-43
2022/11/14 07:24:04;;;;;;;11.23;9.60;;;6.90;93.90;;;;;;5092497;28;20180;-46
2022/11/14 07:26:30;;;;;;;9.30;8.40;;;7.00;93.80;;;;;;5093261;28;20583;-42
2022/11/14 07:28:56;;;;;;;9.47;8.30;;;7.10;93.80;;;;;;5093999;28;20731;-47
2022/11/14 07:31:21;;;;;;;8.77;7.90;;;7.20;93.60;;;;;;5093645;28;20235;-44
2022/11/14 07:33:47;;;;;;;8.57;7.70;;;7.20;93.40;;;;;;5092414;28;20741;-45
2022/11/14 07:36:14;;;;;;;9.10;8.23;;;7.30;93.30;;;;;;5091753;28;20229;-44
2022/11/14 07:38:40;;;;;;;8.90;8.07;;;7.30;93.10;;;;;;5075148;28;20407;-44
2022/11/14 07:41:08;;;;;;;9.13;7.30;;;7.30;93.00;;;;;;5092027;28;20572;-46
2022/11/14 07:43:34;;;;;;;9.80;8.80;;;7.30;92.90;;;;;;5093480;28;20417;-44
2022/11/14 07:46:04;;;;;;;8.93;8.00;;;7.30;92.90;;;;;;5094821;28;20713;-42
2022/11/14 07:48:31;;;;;;;9.00;8.10;;;7.30;92.90;;;;;;5094350;28;20278;-46
2022/11/14 07:51:00;;;;;;;8.70;6.93;;;7.30;93.00;;;;;;5094525;28;20947;-43
2022/11/14 07:53:27;;;;;;;7.60;6.80;;;7.30;93.10;;;;;;5093978;28;20433;-42
2022/11/14 07:55:53;;;;;;;10.53;7.90;;;7.30;93.20;;;;;;5095242;28;20711;-45
2022/11/14 07:58:18;;;;;;;8.83;7.67;;;7.30;93.40;;;;;;5094937;28;20412;-43
2022/11/14 08:00:44;;;;;;;8.33;7.50;;;7.30;93.40;;;;;;5093760;28;20554;-44
2022/11/14 08:03:10;;;;;;;8.77;7.80;;;7.40;93.60;;;;;;5094293;28;20177;-42
2022/11/14 08:05:36;;;;;;;8.33;7.50;;;7.40;93.80;;;;;;5076249;28;20176;-43
2022/11/14 08:08:01;;;;;;;8.57;7.40;;;7.50;94.10;;;;;;5099067;28;20899;-44
2022/11/14 08:10:27;;;;;;;9.40;8.47;;;7.50;94.30;;;;;;5097922;28;20180;-43
2022/11/14 08:13:01;;;;;;;8.33;6.53;;;7.60;94.50;;;;;;5098216;28;20458;-42
2022/11/14 08:15:26;;;;;;;7.87;6.70;;;7.60;94.70;;;;;;5063972;28;20177;-44
2022/11/14 08:17:56;;;;;;;5.10;3.80;;;7.60;94.90;;;;;;5098781;28;20409;-45
2022/11/14 08:20:22;;;;;;;5.73;4.60;;;8.00;98.70;;;;;;5097116;28;20184;-44
2022/11/14 08:22:47;;;;;;;7.23;4.10;;;8.50;99.90;;;;;;5097661;28;20468;-42
2022/11/14 08:25:13;;;;;;;4.97;4.47;;;9.00;99.90;;;;;;5094990;28;20454;-45
2022/11/14 08:27:39;;;;;;;7.23;4.10;;;9.60;99.90;;;;;;5097364;28;20566;-43
2022/11/14 08:30:05;;;;;;;6.57;4.10;;;9.90;99.90;;;;;;5090023;28;20220;-43
2022/11/14 08:32:30;;;;;;;4.23;3.83;;;10.00;99.90;;;;;;5098407;28;20236;-43
2022/11/14 08:34:56;;;;;;;3.60;3.10;;;9.90;99.90;;;;;;5100562;28;20847;-42
2022/11/14 08:37:22;;;;;;;4.57;3.40;;;9.70;99.90;;;;;;5080192;28;20428;-41
2022/11/14 08:39:47;;;;;;;4.50;2.70;;;9.60;99.30;;;;;;5099341;28;20246;-43
2022/11/14 08:42:13;;;;;;;5.17;2.97;;;9.40;99.10;;;;;;5100383;28;20180;-42
2022/11/14 08:44:38;;;;;;;2.93;2.53;;;9.30;99.30;;;;;;5095643;28;20314;-43
2022/11/14 08:47:04;;;;;;;2.50;2.03;;;9.20;99.50;;;;;;5095236;28;20177;-43
2022/11/14 08:49:30;;;;;;;4.23;2.77;;;9.10;99.70;;;;;;5098739;28;20173;-45
2022/11/14 08:51:55;;;;;;;2.80;2.27;;;9.10;99.90;;;;;;5097499;28;20204;-43
2022/11/14 08:54:21;;;;;;;3.23;2.17;;;9.10;99.90;;;;;;5098698;28;20222;-41
2022/11/14 08:56:50;;;;;;;2.40;2.17;;;9.10;99.90;;;;;;5097564;28;20536;-42
2022/11/14 08:59:15;;;;;;;2.80;2.00;;;9.10;99.90;;;;;;5080688;28;20180;-41
2022/11/14 09:01:41;;;;;;;1.90;1.70;;;9.10;99.90;;;;;;5096759;28;20424;-44
2022/11/14 09:04:07;;;;;;;2.33;1.70;;;9.00;99.90;;;;;;5097253;28;20183;-43
2022/11/14 09:06:33;;;;;;;3.30;2.33;;;9.00;99.90;;;;;;5096519;28;20873;-45
2022/11/14 09:08:59;;;;;;;2.87;2.30;;;9.00;99.90;;;;;;5095471;28;20499;-43
2022/11/14 09:11:24;;;;;;;3.47;2.10;;;9.10;99.90;;;;;;5095548;28;20610;-43
2022/11/14 09:13:50;;;;;;;4.00;2.00;;;9.10;99.90;;;;;;5094644;28;20204;-44
2022/11/14 09:16:16;;;;;;;2.40;2.10;;;9.10;99.90;;;;;;5096263;28;20163;-44
2022/11/14 09:18:41;;;;;;;3.20;2.40;;;9.10;99.90;;;;;;5075532;28;20191;-44
2022/11/14 09:21:08;;;;;;;2.80;2.30;;;9.10;99.90;;;;;;5077858;28;20178;-42
2022/11/14 09:23:34;;;;;;;2.83;2.63;;;9.10;99.90;;;;;;5077332;28;20178;-42
2022/11/14 09:26:05;;;;;;;3.10;2.80;;;9.10;99.90;;;;;;5078219;28;20510;-45
2022/11/14 09:28:31;;;;;;;3.40;2.80;;;9.20;99.90;;;;;;5077506;28;20415;-42
2022/11/14 09:31:05;;;;;;;4.50;2.20;;;9.20;99.90;;;;;;5078023;28;20503;-43
2022/11/14 09:33:31;;;;;;;2.60;2.40;;;9.30;99.90;;;;;;5079429;28;20408;-42
2022/11/14 09:36:02;;;;;;;3.50;2.50;;;9.30;99.90;;;;;;5079306;28;20434;-42
2022/11/14 09:38:28;;;;;;;3.17;2.80;;;9.40;99.90;;;;;;5080299;28;20448;-44
2022/11/14 09:41:21;;;;;;;3.23;2.53;;;9.50;99.90;;;;;;5077493;28;20459;-46
2022/11/14 09:43:52;;;;;;;3.70;3.37;;;9.50;99.90;;;;;;5079038;28;20861;-44
2022/11/14 09:46:23;;;;;;;2.80;2.50;;;9.60;99.90;;;;;;5064095;28;20430;-42
2022/11/14 09:48:49;;;;;;;2.87;2.53;;;9.70;99.90;;;;;;5098954;28;20417;-42
2022/11/14 09:51:18;;;;;;;2.77;2.40;;;9.80;99.90;;;;;;5098978;28;20760;-42
2022/11/14 09:53:52;;;;;;;4.43;2.60;;;9.90;99.90;;;;;;5080527;28;20446;-44
2022/11/14 09:56:24;;;;;;;3.20;2.33;;;10.10;99.30;;;;;;5080422;28;20459;-45
2022/11/14 09:58:50;;;;;;;3.33;2.67;;;10.20;99.20;;;;;;5080631;28;20906;-43
2022/11/14 10:01:34;;;;;;;3.20;2.90;;;10.40;99.10;;;;;;5096913;28;20764;-42
2022/11/14 10:04:29;;;;;;;3.27;2.97;;;10.60;98.80;;;;;;5079189;28;20425;-43
2022/11/14 10:07:18;;;;;;;3.10;2.60;;;10.90;98.50;;;;;;5079050;28;20681;-43
2022/11/14 10:10:03;;;;;;;2.80;2.50;;;11.20;98.10;;;;;;5096941;28;20431;-43
2022/11/14 10:12:57;;;;;;;1.90;1.70;;;11.80;97.70;;;;;;5097595;28;20494;-44
2022/11/14 10:15:57;;;;;;;2.47;2.00;;;12.60;96.50;;;;;;5095613;28;20438;-44
2022/11/14 10:18:23;;;;;;;2.33;1.93;;;13.30;95.10;;;;;;5074582;28;20770;-44
2022/11/14 10:20:54;;;;;;;2.20;1.60;;;13.60;93.20;;;;;;5093335;28;20524;-44
2022/11/14 10:23:52;;;;;;;1.90;1.60;;;13.60;92.20;;;;;;5074962;28;20215;-42
2022/11/14 10:26:30;;;;;;;1.80;1.30;;;13.40;91.90;;;;;;5020023;28;20439;-42
2022/11/14 10:29:28;;;;;;;1.53;1.33;;;13.20;92.00;;;;;;5058624;28;20408;-44
2022/11/14 10:32:30;;;;;;;5.23;2.33;;;12.90;92.20;;;;;;5076350;28;20506;-43
2022/11/14 10:35:07;;;;;;;1.87;1.47;;;12.70;92.70;;;;;;5093372;28;20423;-43
2022/11/14 10:38:00;;;;;;;1.83;1.43;;;12.60;93.20;;;;;;5095890;28;20571;-41
2022/11/14 10:40:39;;;;;;;1.90;1.53;;;12.70;93.60;;;;;;5089948;28;20435;-43
2022/11/14 10:43:42;;;;;;;2.20;1.60;;;13.00;93.70;;;;;;5070691;28;20510;-43
2022/11/14 10:46:14;;;;;;;1.67;1.23;;;13.80;93.60;;;;;;5078468;28;20527;-43
2022/11/14 10:48:45;;;;;;;2.73;1.60;;;14.40;92.20;;;;;;5074859;28;20418;-45
2022/11/14 10:51:23;;;;;;;2.40;1.50;;;14.50;91.20;;;;;;5075699;28;20426;-42
2022/11/14 10:54:12;;;;;;;2.60;1.50;;;14.50;90.70;;;;;;5059002;28;20515;-42
2022/11/14 10:56:48;;;;;;;1.50;1.30;;;14.40;90.70;;;;;;5075617;28;20420;-42
2022/11/14 10:59:14;;;;;;;2.07;1.30;;;14.30;90.90;;;;;;5085628;28;20450;-42
2022/11/14 11:01:42;;;;;;;1.53;1.40;;;14.20;90.90;;;;;;5074305;28;20467;-44
2022/11/14 11:04:29;;;;;;;1.83;1.30;;;14.10;90.90;;;;;;5090443;28;20181;-44
2022/11/14 11:06:57;;;;;;;1.70;1.50;;;14.10;91.00;;;;;;5094444;28;20741;-41
2022/11/14 11:12:17;;;;;;;1.50;1.20;;;14.10;90.80;;;;;;5060070;28;20503;-42
2022/11/14 11:14:50;;;;;;;2.00;1.47;;;14.10;90.90;;;;;;5074763;28;20450;-42
2022/11/14 11:17:19;;;;;;;2.10;1.30;;;14.10;90.90;;;;;;5077056;28;20432;-42
2022/11/14 11:19:47;;;;;;;1.80;1.43;;;14.00;90.90;;;;;;5093891;28;20449;-43
2022/11/14 11:22:35;;;;;;;1.80;1.50;;;13.90;90.90;;;;;;5094387;28;20515;-42
2022/11/14 11:25:13;;;;;;;2.80;1.40;;;13.70;90.90;;;;;;5095779;28;20535;-44
2022/11/14 11:27:39;;;;;;;2.23;1.20;;;13.50;91.10;;;;;;5077048;28;20858;-43
2022/11/14 11:30:22;;;;;;;1.67;1.10;;;13.40;91.30;;;;;;5094225;28;20427;-43
2022/11/14 11:32:47;;;;;;;2.00;1.30;;;13.30;91.40;;;;;;5095113;28;20205;-44
2022/11/14 11:35:15;;;;;;;1.60;1.50;;;13.10;91.60;;;;;;5096184;28;20433;-42
2022/11/14 11:37:43;;;;;;;1.80;1.20;;;13.00;91.90;;;;;;5093155;28;20180;-43
2022/11/14 11:40:18;;;;;;;2.57;1.73;;;12.80;91.90;;;;;;5085734;28;20641;-43
2022/11/14 11:42:57;;;;;;;2.13;1.50;;;12.70;92.10;;;;;;5095419;28;20497;-43
2022/11/14 11:45:23;;;;;;;1.70;1.60;;;12.60;92.30;;;;;;5076375;28;20445;-42
2022/11/14 11:47:53;;;;;;;1.97;1.43;;;12.50;92.40;;;;;;5057652;28;20536;-43
2022/11/14 11:50:20;;;;;;;2.43;1.60;;;12.40;92.60;;;;;;5086928;28;20807;-42
2022/11/14 11:53:04;;;;;;;2.80;1.80;;;12.30;92.70;;;;;;5096275;28;20478;-43
2022/11/14 11:55:33;;;;;;;2.40;1.73;;;12.30;92.90;;;;;;5095206;28;20565;-40
2022/11/14 11:58:05;;;;;;;2.07;1.87;;;12.20;93.00;;;;;;5088669;28;20468;-43
2022/11/14 12:00:31;;;;;;;2.40;1.80;;;12.20;93.10;;;;;;5076149;28;20844;-43
2022/11/14 12:02:57;;;;;;;2.50;1.93;;;12.30;93.20;;;;;;5073416;28;20479;-41
2022/11/14 12:05:50;;;;;;;3.20;2.00;;;12.30;93.10;;;;;;5075197;28;20223;-41
2022/11/14 12:08:48;;;;;;;2.20;1.90;;;12.50;93.10;;;;;;5094242;28;20704;-44
2022/11/14 12:11:18;;;;;;;2.13;1.73;;;12.60;92.90;;;;;;5093733;28;20439;-43
2022/11/14 12:13:59;;;;;;;2.40;2.07;;;12.90;92.40;;;;;;5094247;28;20421;-42
2022/11/14 12:16:38;;;;;;;3.00;1.80;;;13.10;92.30;;;;;;5092304;28;20833;-43
2022/11/14 12:19:34;;;;;;;2.77;1.90;;;13.40;92.00;;;;;;5075482;28;20511;-41
2022/11/14 12:22:06;;;;;;;2.07;1.37;;;13.80;91.30;;;;;;5092916;28;20807;-45
2022/11/14 12:25:03;;;;;;;2.97;1.93;;;14.80;90.70;;;;;;5094692;28;20514;-42
2022/11/14 12:27:50;;;;;;;3.97;1.70;;;16.50;88.80;;;;;;5075696;28;20435;-42
2022/11/14 12:30:23;;;;;;;2.03;1.30;;;18.50;81.10;;;;;;5092684;28;20754;-43
2022/11/14 12:32:52;;;;;;;1.83;1.60;;;20.60;72.70;;;;;;5076145;28;20462;-43
2022/11/14 12:35:28;;;;;;;2.30;1.50;;;21.70;65.30;;;;;;5093220;28;20434;-43
2022/11/14 12:37:54;;;;;;;2.73;1.90;;;22.60;59.40;;;;;;5074941;28;20438;-43
2022/11/14 12:40:38;;;;;;;2.00;1.60;;;24.00;56.60;;;;;;5076079;28;20432;-43
2022/11/14 12:43:24;;;;;;;1.90;1.60;;;24.90;53.30;;;;;;5074841;28;20844;-45
2022/11/14 12:45:49;;;;;;;1.70;1.60;;;25.90;51.00;;;;;;5086332;28;20442;-44
2022/11/14 12:48:29;;;;;;;2.40;1.83;;;27.60;47.50;;;;;;5092667;28;20870;-44
2022/11/14 12:50:56;;;;;;;3.27;1.70;;;28.30;44.80;;;;;;5087677;28;20327;-43
2022/11/14 12:53:34;;;;;;;2.33;1.67;;;29.40;42.80;;;;;;5075451;28;20427;-45
2022/11/14 12:56:12;;;;;;;2.60;1.90;;;30.60;40.10;;;;;;5093566;28;20433;-46
2022/11/14 12:58:43;;;;;;;2.17;1.33;;;31.50;38.30;;;;;;5094747;28;20406;-45
2022/11/14 13:01:46;;;;;;;2.50;2.10;;;32.20;36.80;;;;;;5093637;28;20435;-47
2022/11/14 13:04:26;;;;;;;2.00;1.70;;;32.60;35.40;;;;;;5096471;28;20418;-44